Time;durP1;ratioP1;P1;durP2;ratioP2;P2;SDS_P1;SDS_P2;PMS_P1;PMS_P2;Temp;Humidity;BMP_temperature;BMP_pressure;BME280_temperature;BME280_humidity;BME280_pressure;Samples;Min_cycle;Max_cycle;Signal;HPM_P1;HPM_P2
2022/03/18 00:02:11;;;;;;;;;;;;;;;;;;4987810;28;19997;-48
2022/03/18 00:04:36;;;;;;;;;;;;;;;;;;4988052;28;19921;-48
2022/03/18 00:07:01;;;;;;;;;;;;;;;;;;4984019;28;20008;-48
2022/03/18 00:09:26;;;;;;;;;;;;;;;;;;4987275;28;19914;-49
2022/03/18 00:11:51;;;;;;;;;;;;;;;;;;4982454;28;20380;-48
2022/03/18 00:14:16;;;;;;;;;;;;;;;;;;4987040;28;19976;-49
2022/03/18 00:16:42;;;;;;;;;;;;;;;;;;4984115;28;19921;-48
2022/03/18 00:19:07;;;;;;;;;;;;;;;;;;4988987;28;19924;-48
2022/03/18 00:21:32;;;;;;;;;;;;;;;;;;4989007;28;19909;-48
2022/03/18 00:23:58;;;;;;;;;;;;;;;;;;4985151;28;19914;-48
2022/03/18 00:26:23;;;;;;;;;;;;;;;;;;4987150;28;19914;-49
2022/03/18 00:28:48;;;;;;;;;;;;;;;;;;4986618;28;20309;-48
2022/03/18 00:31:13;;;;;;;;;;;;;;;;;;4988390;28;20368;-49
2022/03/18 00:33:38;;;;;;;;;;;;;;;;;;4988099;28;20410;-48
2022/03/18 00:36:03;;;;;;;;;;;;;;;;;;4986074;28;19914;-48
2022/03/18 00:38:29;;;;;;;;;;;;;;;;;;4985908;28;19949;-48
2022/03/18 00:40:56;;;;;;;;;;;;;;;;;;4982205;28;19918;-48
2022/03/18 00:43:21;;;;;;;;;;;;;;;;;;4986317;28;19921;-48
2022/03/18 00:45:46;;;;;;;;;;;;;;;;;;4988363;28;19914;-48
2022/03/18 00:53:35;;;;;;;;;;;;;;;;;;5032048;28;20394;-49
2022/03/18 00:56:00;;;;;;;;;;;;;;;;;;5032139;28;19960;-49
2022/03/18 00:58:26;;;;;;;;;;;;;;;;;;5053134;28;19959;-46
2022/03/18 01:00:51;;;;;;;;;;;;;;;;;;5027281;28;20025;-48
2022/03/18 01:03:16;;;;;;;;;;;;;;;;;;5036643;28;20390;-50
2022/03/18 01:05:41;;;;;;;;;;;;;;;;;;5029970;28;19916;-48
2022/03/18 01:08:06;;;;;;;;;;;;;;;;;;5036474;28;19917;-48
2022/03/18 01:10:31;;;;;;;;;;;;;;;;;;5030732;28;19916;-46
2022/03/18 01:12:56;;;;;;;;;;;;;;;;;;5030112;28;19909;-47
2022/03/18 01:15:21;;;;;;;;;;;;;;;;;;5028382;28;20388;-48
2022/03/18 01:17:46;;;;;;;;;;;;;;;;;;5030062;28;20020;-47
2022/03/18 01:20:11;;;;;;;;;;;;;;;;;;5031534;28;20008;-47
2022/03/18 01:22:37;;;;;;;;;;;;;;;;;;5035907;28;19920;-48
2022/03/18 01:25:02;;;;;;;;;;;;;;;;;;5029886;28;19955;-47
2022/03/18 01:27:27;;;;;;;;;;;;;;;;;;5025298;28;20674;-48
2022/03/18 01:29:52;;;;;;;;;;;;;;;;;;5034163;28;19979;-49
2022/03/18 01:32:17;;;;;;;;;;;;;;;;;;5038692;28;19955;-47
2022/03/18 01:34:42;;;;;;;;;;;;;;;;;;5038638;28;20004;-47
2022/03/18 01:37:08;;;;;;;;;;;;;;;;;;5031477;28;20019;-48
2022/03/18 01:39:33;;;;;;;;;;;;;;;;;;5039569;28;20011;-47
2022/03/18 01:41:58;;;;;;;;;;;;;;;;;;5035098;28;20007;-49
2022/03/18 01:44:23;;;;;;;;;;;;;;;;;;5033267;28;19952;-47
2022/03/18 01:46:49;;;;;;;;;;;;;;;;;;5032871;28;19920;-47
2022/03/18 01:49:14;;;;;;;;;;;;;;;;;;5034996;28;19917;-47
2022/03/18 01:51:40;;;;;;;;;;;;;;;;;;5035083;28;19963;-47
2022/03/18 01:56:49;;;;;;;;;;;;;;;;;;5034577;28;19921;-47
2022/03/18 01:59:14;;;;;;;;;;;;;;;;;;5034761;28;19909;-47
2022/03/18 02:01:39;;;;;;;;;;;;;;;;;;5034688;28;19920;-48
2022/03/18 02:04:04;;;;;;;;;;;;;;;;;;5034186;28;19917;-47
2022/03/18 02:06:29;;;;;;;;;;;;;;;;;;5034595;28;19917;-48
2022/03/18 02:08:55;;;;;;;;;;;;;;;;;;5034394;28;19909;-48
2022/03/18 02:11:20;;;;;;;;;;;;;;;;;;5034557;28;19932;-47
2022/03/18 02:13:45;;;;;;;;;;;;;;;;;;5034153;28;20347;-47
2022/03/18 02:16:10;;;;;;;;;;;;;;;;;;5034435;28;19921;-48
2022/03/18 02:18:35;;;;;;;;;;;;;;;;;;5033406;28;19963;-50
2022/03/18 02:21:00;;;;;;;;;;;;;;;;;;5034447;28;19951;-48
2022/03/18 02:23:25;;;;;;;;;;;;;;;;;;5034299;28;19967;-48
2022/03/18 02:25:51;;;;;;;;;;;;;;;;;;5033080;28;19919;-47
2022/03/18 02:28:16;;;;;;;;;;;;;;;;;;5034363;28;19909;-47
2022/03/18 02:30:41;;;;;;;;;;;;;;;;;;5034448;28;20055;-46
2022/03/18 02:33:06;;;;;;;;;;;;;;;;;;5034533;28;20423;-47
2022/03/18 02:35:32;;;;;;;;;;;;;;;;;;5034131;28;20288;-47
2022/03/18 02:37:57;;;;;;;;;;;;;;;;;;5034307;28;20356;-46
2022/03/18 02:40:22;;;;;;;;;;;;;;;;;;5034397;28;19915;-47
2022/03/18 02:42:47;;;;;;;;;;;;;;;;;;5034284;28;20283;-47
2022/03/18 02:45:12;;;;;;;;;;;;;;;;;;5034321;28;19913;-47
2022/03/18 02:47:37;;;;;;;;;;;;;;;;;;5034269;28;20345;-47
2022/03/18 02:50:02;;;;;;;;;;;;;;;;;;5034212;28;19924;-47
2022/03/18 02:52:27;;;;;;;;;;;;;;;;;;5034219;28;20010;-48
2022/03/18 02:54:52;;;;;;;;;;;;;;;;;;5032389;28;19978;-47
2022/03/18 02:57:17;;;;;;;;;;;;;;;;;;5034145;28;20422;-47
2022/03/18 02:59:43;;;;;;;;;;;;;;;;;;5034359;28;20318;-46
2022/03/18 03:02:08;;;;;;;;;;;;;;;;;;5034222;28;19975;-47
2022/03/18 03:04:33;;;;;;;;;;;;;;;;;;5033489;28;19909;-47
2022/03/18 03:09:42;;;;;;;;;;;;;;;;;;5034059;28;19964;-47
2022/03/18 03:12:07;;;;;;;;;;;;;;;;;;5034003;28;20323;-47
2022/03/18 03:14:32;;;;;;;;;;;;;;;;;;5033334;28;19909;-47
2022/03/18 03:16:57;;;;;;;;;;;;;;;;;;5033680;28;20272;-47
2022/03/18 03:19:22;;;;;;;;;;;;;;;;;;5033995;28;19909;-47
2022/03/18 03:21:47;;;;;;;;;;;;;;;;;;5033951;28;19913;-50
2022/03/18 03:24:13;;;;;;;;;;;;;;;;;;5028192;28;19917;-47
2022/03/18 03:26:38;;;;;;;;;;;;;;;;;;5033226;28;19913;-47
2022/03/18 03:29:03;;;;;;;;;;;;;;;;;;5034942;28;20352;-48
2022/03/18 03:31:28;;;;;;;;;;;;;;;;;;5037581;28;20375;-47
2022/03/18 03:33:53;;;;;;;;;;;;;;;;;;5037294;28;19960;-47
2022/03/18 03:36:19;;;;;;;;;;;;;;;;;;5036997;28;19953;-47
2022/03/18 03:38:44;;;;;;;;;;;;;;;;;;5037318;28;19963;-48
2022/03/18 03:41:09;;;;;;;;;;;;;;;;;;5037344;28;19912;-47
2022/03/18 03:43:34;;;;;;;;;;;;;;;;;;5037289;28;20008;-47
2022/03/18 03:45:59;;;;;;;;;;;;;;;;;;5036483;28;20000;-48
2022/03/18 03:48:24;;;;;;;;;;;;;;;;;;5037456;28;20019;-48
2022/03/18 03:50:49;;;;;;;;;;;;;;;;;;5037134;28;20019;-48
2022/03/18 03:53:14;;;;;;;;;;;;;;;;;;5037186;28;20000;-47
2022/03/18 03:55:40;;;;;;;;;;;;;;;;;;5036240;28;19913;-51
2022/03/18 03:58:06;;;;;;;;;;;;;;;;;;5036999;28;19909;-47
2022/03/18 04:00:31;;;;;;;;;;;;;;;;;;5036832;28;19998;-45
2022/03/18 04:02:56;;;;;;;;;;;;;;;;;;5036687;28;20323;-46
2022/03/18 04:05:21;;;;;;;;;;;;;;;;;;5036246;28;19917;-46
2022/03/18 04:07:46;;;;;;;;;;;;;;;;;;5036360;28;19970;-46
2022/03/18 04:10:12;;;;;;;;;;;;;;;;;;5036603;28;19936;-48
2022/03/18 04:12:37;;;;;;;;;;;;;;;;;;5036694;28;19913;-46
2022/03/18 04:15:02;;;;;;;;;;;;;;;;;;5036622;28;19939;-47
2022/03/18 04:17:27;;;;;;;;;;;;;;;;;;5036515;28;19920;-47
2022/03/18 04:19:53;;;;;;;;;;;;;;;;;;5036774;28;19916;-48
2022/03/18 04:22:18;;;;;;;;;;;;;;;;;;5036623;28;19905;-46
2022/03/18 04:24:43;;;;;;;;;;;;;;;;;;5035592;28;19936;-47
2022/03/18 04:27:08;;;;;;;;;;;;;;;;;;5036024;28;19932;-47
2022/03/18 04:29:33;;;;;;;;;;;;;;;;;;5035832;28;20387;-46
2022/03/18 04:31:59;;;;;;;;;;;;;;;;;;5036377;28;20260;-46
2022/03/18 04:34:24;;;;;;;;;;;;;;;;;;5036586;28;19909;-46
2022/03/18 04:36:49;;;;;;;;;;;;;;;;;;5035589;28;19917;-47
2022/03/18 04:39:14;;;;;;;;;;;;;;;;;;5036197;28;20315;-48
2022/03/18 04:41:39;;;;;;;;;;;;;;;;;;5034073;28;19909;-47
2022/03/18 04:44:04;;;;;;;;;;;;;;;;;;5036022;28;19913;-47
2022/03/18 04:46:31;;;;;;;;;;;;;;;;;;5035107;28;19913;-47
2022/03/18 04:48:56;;;;;;;;;;;;;;;;;;5035973;28;20008;-47
2022/03/18 04:51:21;;;;;;;;;;;;;;;;;;5035051;28;19953;-47
2022/03/18 04:53:46;;;;;;;;;;;;;;;;;;5035066;28;19944;-49
2022/03/18 04:57:15;;;;;;;;;;;;;;;;;;5034121;28;19914;-46
2022/03/18 04:58:56;;;;;;;;;;;;;;;;;;5034722;28;19996;-46
2022/03/18 05:01:21;;;;;;;;;;;;;;;;;;5034802;28;19952;-47
2022/03/18 05:03:46;;;;;;;;;;;;;;;;;;5034556;28;19913;-47
2022/03/18 05:06:12;;;;;;;;;;;;;;;;;;5034243;28;20043;-48
2022/03/18 05:08:37;;;;;;;;;;;;;;;;;;5034579;28;20447;-46
2022/03/18 05:11:02;;;;;;;;;;;;;;;;;;5034545;28;20342;-46
2022/03/18 05:13:27;;;;;;;;;;;;;;;;;;5034658;28;20000;-46
2022/03/18 05:15:52;;;;;;;;;;;;;;;;;;5034067;28;19987;-46
2022/03/18 05:18:17;;;;;;;;;;;;;;;;;;5034513;28;20312;-46
2022/03/18 05:20:42;;;;;;;;;;;;;;;;;;5034528;28;20348;-46
2022/03/18 05:23:07;;;;;;;;;;;;;;;;;;5034657;28;20288;-47
2022/03/18 05:25:33;;;;;;;;;;;;;;;;;;5034226;28;19914;-47
2022/03/18 05:27:58;;;;;;;;;;;;;;;;;;5033880;28;20375;-48
2022/03/18 05:30:23;;;;;;;;;;;;;;;;;;5034534;28;19936;-47
2022/03/18 05:32:49;;;;;;;;;;;;;;;;;;5034485;28;19913;-46
2022/03/18 05:35:16;;;;;;;;;;;;;;;;;;5034324;28;19905;-47
2022/03/18 05:37:41;;;;;;;;;;;;;;;;;;5033953;28;19913;-48
2022/03/18 05:40:06;;;;;;;;;;;;;;;;;;5034448;28;19940;-46
2022/03/18 05:42:31;;;;;;;;;;;;;;;;;;5034124;28;19939;-46
2022/03/18 05:44:56;;;;;;;;;;;;;;;;;;5034175;28;19995;-46
2022/03/18 05:47:21;;;;;;;;;;;;;;;;;;5033849;28;19913;-48
2022/03/18 05:49:46;;;;;;;;;;;;;;;;;;4970746;28;1810082;-46
2022/03/18 05:52:12;;;;;;;;;;;;;;;;;;5034607;28;19971;-48
2022/03/18 05:54:37;;;;;;;;;;;;;;;;;;5034617;28;19963;-49
2022/03/18 05:57:02;;;;;;;;;;;;;;;;;;5034316;28;19999;-48
2022/03/18 05:59:27;;;;;;;;;;;;;;;;;;5034585;28;20396;-49
2022/03/18 06:01:52;;;;;;;;;;;;;;;;;;5034836;28;19909;-48
2022/03/18 06:04:17;;;;;;;;;;;;;;;;;;5034589;28;20296;-48
2022/03/18 06:06:43;;;;;;;;;;;;;;;;;;5034172;28;19913;-47
2022/03/18 06:11:52;;;;;;;;;;;;;;;;;;5034351;28;19963;-49
2022/03/18 06:14:18;;;;;;;;;;;;;;;;;;5034534;28;19909;-48
2022/03/18 06:16:43;;;;;;;;;;;;;;;;;;5034016;28;19913;-49
2022/03/18 06:19:09;;;;;;;;;;;;;;;;;;5034788;28;19909;-51
2022/03/18 06:21:34;;;;;;;;;;;;;;;;;;5034703;28;19909;-49
2022/03/18 06:23:59;;;;;;;;;;;;;;;;;;5019355;28;19939;-48
2022/03/18 06:26:24;;;;;;;;;;;;;;;;;;5011133;28;19924;-51
2022/03/18 06:28:49;;;;;;;;;;;;;;;;;;5018994;28;19924;-51
2022/03/18 06:31:14;;;;;;;;;;;;;;;;;;5035670;28;19928;-51
2022/03/18 06:33:43;;;;;;;;;;;;;;;;;;5036119;28;19916;-50
2022/03/18 06:36:08;;;;;;;;;;;;;;;;;;5021704;28;19913;-51
2022/03/18 06:38:33;;;;;;;;;;;;;;;;;;5026332;28;20277;-50
2022/03/18 06:40:59;;;;;;;;;;;;;;;;;;5055553;28;19909;-51
2022/03/18 06:43:24;;;;;;;;;;;;;;;;;;5033381;28;19921;-51
2022/03/18 06:45:49;;;;;;;;;;;;;;;;;;5033463;28;19925;-53
2022/03/18 06:48:15;;;;;;;;;;;;;;;;;;5037216;28;19914;-51
2022/03/18 06:50:40;;;;;;;;;;;;;;;;;;5041127;28;20331;-50
2022/03/18 06:53:05;;;;;;;;;;;;;;;;;;5032144;28;19920;-51
2022/03/18 06:55:30;;;;;;;;;;;;;;;;;;5026980;28;19922;-51
2022/03/18 06:57:55;;;;;;;;;;;;;;;;;;5029127;28;19966;-50
2022/03/18 07:00:21;;;;;;;;;;;;;;;;;;5025785;28;19916;-50
2022/03/18 07:02:46;;;;;;;;;;;;;;;;;;5005075;28;20749;-53
2022/03/18 07:05:12;;;;;;;;;;;;;;;;;;5015438;28;19999;-52
2022/03/18 07:07:37;;;;;;;;;;;;;;;;;;5010156;28;20083;-51
2022/03/18 07:10:02;;;;;;;;;;;;;;;;;;4997383;28;20368;-55
2022/03/18 07:12:28;;;;;;;;;;;;;;;;;;4977577;28;19921;-51
2022/03/18 07:14:53;;;;;;;;;;;;;;;;;;4966485;28;20391;-49
2022/03/18 07:20:02;;;;;;;;;;;;;;;;;;4889444;28;19928;-52
2022/03/18 07:22:27;;;;;;;;;;;;;;;;;;4859040;28;21791;-54
2022/03/18 07:24:52;;;;;;;;;;;;;;;;;;4763769;28;19921;-55
2022/03/18 07:27:18;;;;;;;;;;;;;;;;;;4682051;28;21090;-53
2022/03/18 07:29:43;;;;;;;;;;;;;;;;;;4658818;28;20618;-51
2022/03/18 07:32:08;;;;;;;;;;;;;;;;;;4770162;28;19973;-54
2022/03/18 07:34:33;;;;;;;;;;;;;;;;;;4825346;28;21333;-53
2022/03/18 07:36:58;;;;;;;;;;;;;;;;;;4817592;28;19991;-52
2022/03/18 07:39:23;;;;;;;;;;;;;;;;;;4765775;28;19922;-53
2022/03/18 07:41:48;;;;;;;;;;;;;;;;;;4849986;28;19960;-51
2022/03/18 07:44:13;;;;;;;;;;;;;;;;;;4862477;28;20020;-53
2022/03/18 07:46:38;;;;;;;;;;;;;;;;;;4836064;28;19975;-51
2022/03/18 07:49:04;;;;;;;;;;;;;;;;;;4863988;28;20106;-51
2022/03/18 07:51:30;;;;;;;;;;;;;;;;;;4876613;28;19922;-53
2022/03/18 07:53:56;;;;;;;;;;;;;;;;;;4884127;28;19934;-51
2022/03/18 07:56:21;;;;;;;;;;;;;;;;;;4873517;28;21882;-53
2022/03/18 07:58:46;;;;;;;;;;;;;;;;;;4879886;28;19928;-52
2022/03/18 08:01:11;;;;;;;;;;;;;;;;;;4874342;28;21058;-54
2022/03/18 08:03:36;;;;;;;;;;;;;;;;;;4859126;28;19929;-53
2022/03/18 08:06:02;;;;;;;;;;;;;;;;;;4843225;28;20667;-53
2022/03/18 08:08:27;;;;;;;;;;;;;;;;;;4816736;28;20855;-53
2022/03/18 08:10:52;;;;;;;;;;;;;;;;;;4787763;28;20075;-52
2022/03/18 08:13:17;;;;;;;;;;;;;;;;;;4763440;28;20484;-52
2022/03/18 08:15:44;;;;;;;;;;;;;;;;;;4707052;28;22193;-51
2022/03/18 08:18:10;;;;;;;;;;;;;;;;;;4725224;28;22128;-54
2022/03/18 08:20:40;;;;;;;;;;;;;;;;;;4655120;28;20004;-53
2022/03/18 08:23:05;;;;;;;;;;;;;;;;;;4543600;28;21294;-51
2022/03/18 08:25:30;;;;;;;;;;;;;;;;;;4537369;28;20025;-51
2022/03/18 08:27:55;;;;;;;;;;;;;;;;;;4686555;28;22291;-54
2022/03/18 08:30:20;;;;;;;;;;;;;;;;;;4748565;28;21889;-55
2022/03/18 08:32:46;;;;;;;;;;;;;;;;;;4806114;28;19920;-52
2022/03/18 08:35:11;;;;;;;;;;;;;;;;;;4791029;28;19959;-52
2022/03/18 08:40:20;;;;;;;;;;;;;;;;;;4809674;28;20830;-52
2022/03/18 08:42:45;;;;;;;;;;;;;;;;;;4756295;28;19976;-52
2022/03/18 08:45:10;;;;;;;;;;;;;;;;;;4793117;28;21189;-52
2022/03/18 08:47:35;;;;;;;;;;;;;;;;;;4806732;28;21774;-51
2022/03/18 08:50:01;;;;;;;;;;;;;;;;;;4743679;28;21541;-50
2022/03/18 08:52:26;;;;;;;;;;;;;;;;;;4754305;28;20010;-54
2022/03/18 08:54:51;;;;;;;;;;;;;;;;;;4729297;28;21764;-51
2022/03/18 08:57:16;;;;;;;;;;;;;;;;;;4741999;28;22055;-52
2022/03/18 08:59:41;;;;;;;;;;;;;;;;;;4753280;28;21164;-52
2022/03/18 09:02:06;;;;;;;;;;;;;;;;;;4753406;28;19921;-51
2022/03/18 09:04:31;;;;;;;;;;;;;;;;;;4769981;28;20158;-52
2022/03/18 09:06:57;;;;;;;;;;;;;;;;;;4700018;28;23557;-51
2022/03/18 09:09:22;;;;;;;;;;;;;;;;;;4698416;28;19955;-52
2022/03/18 09:11:47;;;;;;;;;;;;;;;;;;4652208;28;21657;-53
2022/03/18 09:14:13;;;;;;;;;;;;;;;;;;4659255;28;21615;-52
2022/03/18 09:16:38;;;;;;;;;;;;;;;;;;4692976;28;19968;-53
2022/03/18 09:19:03;;;;;;;;;;;;;;;;;;4760293;28;20584;-50
2022/03/18 09:21:28;;;;;;;;;;;;;;;;;;4797905;28;22276;-51
2022/03/18 09:23:53;;;;;;;;;;;;;;;;;;4762477;28;23615;-53
2022/03/18 09:26:18;;;;;;;;;;;;;;;;;;4736158;28;23800;-52
2022/03/18 09:28:43;;;;;;;;;;;;;;;;;;4638464;28;21946;-54
2022/03/18 09:31:08;;;;;;;;;;;;;;;;;;4687714;28;20565;-54
2022/03/18 09:33:35;;;;;;;;;;;;;;;;;;4733603;28;20686;-51
2022/03/18 09:36:00;;;;;;;;;;;;;;;;;;4748553;28;19925;-53
2022/03/18 09:38:25;;;;;;;;;;;;;;;;;;4781906;28;19989;-53
2022/03/18 09:40:50;;;;;;;;;;;;;;;;;;4760727;28;19983;-53
2022/03/18 09:43:15;;;;;;;;;;;;;;;;;;4817470;28;19931;-53
2022/03/18 09:45:40;;;;;;;;;;;;;;;;;;4813832;28;19928;-51
2022/03/18 09:48:09;;;;;;;;;;;;;;;;;;4825709;28;21856;-52
2022/03/18 09:50:34;;;;;;;;;;;;;;;;;;4832228;28;19978;-52
2022/03/18 09:53:00;;;;;;;;;;;;;;;;;;4799485;28;21459;-51
2022/03/18 09:55:25;;;;;;;;;;;;;;;;;;4816045;28;19953;-51
2022/03/18 09:57:50;;;;;;;;;;;;;;;;;;4761286;28;19925;-52
2022/03/18 10:00:15;;;;;;;;;;;;;;;;;;4764683;28;20997;-52
2022/03/18 10:02:40;;;;;;;;;;;;;;;;;;4780382;28;19936;-54
2022/03/18 10:05:06;;;;;;;;;;;;;;;;;;4779080;28;21279;-54
2022/03/18 10:07:31;;;;;;;;;;;;;;;;;;4788554;28;21302;-53
2022/03/18 10:09:56;;;;;;;;;;;;;;;;;;4745055;28;21550;-54
2022/03/18 10:12:22;;;;;;;;;;;;;;;;;;4715912;28;21282;-53
2022/03/18 10:14:47;;;;;;;;;;;;;;;;;;4751276;28;20018;-55
2022/03/18 10:17:13;;;;;;;;;;;;;;;;;;4666498;28;19925;-54
2022/03/18 10:19:44;;;;;;;;;;;;;;;;;;4601788;28;22695;-50
2022/03/18 10:22:10;;;;;;;;;;;;;;;;;;4525264;28;20001;-53
2022/03/18 10:24:35;;;;;;;;;;;;;;;;;;4436311;28;20725;-51
2022/03/18 10:27:01;;;;;;;;;;;;;;;;;;4515252;28;20662;-51
2022/03/18 10:29:26;;;;;;;;;;;;;;;;;;4639691;28;24030;-54
2022/03/18 10:31:51;;;;;;;;;;;;;;;;;;4662727;28;19921;-54
2022/03/18 10:37:12;;;;;;;;;;;;;;;;;;4748770;28;21183;-54
2022/03/18 10:39:37;;;;;;;;;;;;;;;;;;4718269;28;19964;-52
2022/03/18 10:42:02;;;;;;;;;;;;;;;;;;4700488;28;19922;-52
2022/03/18 10:44:28;;;;;;;;;;;;;;;;;;4682271;28;22588;-53
2022/03/18 10:46:54;;;;;;;;;;;;;;;;;;4646942;28;21085;-52
2022/03/18 10:49:22;;;;;;;;;;;;;;;;;;4702304;28;21187;-53
2022/03/18 10:51:48;;;;;;;;;;;;;;;;;;4722987;28;20524;-55
2022/03/18 10:54:13;;;;;;;;;;;;;;;;;;4750253;28;19925;-51
2022/03/18 10:56:38;;;;;;;;;;;;;;;;;;4715361;28;20014;-53
2022/03/18 10:59:04;;;;;;;;;;;;;;;;;;4681125;28;19925;-51
2022/03/18 11:01:29;;;;;;;;;;;;;;;;;;4679382;28;22611;-52
2022/03/18 11:03:54;;;;;;;;;;;;;;;;;;4690365;28;21707;-54
2022/03/18 11:06:19;;;;;;;;;;;;;;;;;;4685992;28;20852;-51
2022/03/18 11:08:44;;;;;;;;;;;;;;;;;;4548660;28;20642;-51
2022/03/18 11:11:18;;;;;;;;;;;;;;;;;;4537415;28;23245;-51
2022/03/18 11:13:43;;;;;;;;;;;;;;;;;;4446611;28;20054;-54
2022/03/18 11:16:08;;;;;;;;;;;;;;;;;;4495069;28;19921;-51
2022/03/18 11:18:34;;;;;;;;;;;;;;;;;;4621141;28;20592;-50
2022/03/18 11:21:01;;;;;;;;;;;;;;;;;;4654103;28;21383;-51
2022/03/18 11:23:27;;;;;;;;;;;;;;;;;;4668865;28;20408;-50
2022/03/18 11:25:52;;;;;;;;;;;;;;;;;;4691999;28;20448;-51
2022/03/18 11:28:17;;;;;;;;;;;;;;;;;;4701362;28;24831;-51
2022/03/18 11:30:42;;;;;;;;;;;;;;;;;;4684235;28;20556;-52
2022/03/18 11:33:07;;;;;;;;;;;;;;;;;;4641425;28;19945;-51
2022/03/18 11:35:32;;;;;;;;;;;;;;;;;;4689150;28;21828;-52
2022/03/18 11:37:58;;;;;;;;;;;;;;;;;;4628516;28;19948;-54
2022/03/18 11:40:27;;;;;;;;;;;;;;;;;;4542948;28;22160;-51
2022/03/18 11:42:52;;;;;;;;;;;;;;;;;;4515483;28;21573;-49
2022/03/18 11:45:17;;;;;;;;;;;;;;;;;;4684380;28;22588;-49
2022/03/18 11:47:44;;;;;;;;;;;;;;;;;;4707378;28;20058;-50
2022/03/18 11:50:09;;;;;;;;;;;;;;;;;;4713069;28;20574;-51
2022/03/18 11:52:34;;;;;;;;;;;;;;;;;;4737975;28;22526;-49
2022/03/18 11:54:59;;;;;;;;;;;;;;;;;;4701651;28;20014;-53
2022/03/18 11:57:24;;;;;;;;;;;;;;;;;;4711704;28;19921;-50
2022/03/18 11:59:53;;;;;;;;;;;;;;;;;;4676354;28;22355;-53
2022/03/18 12:02:18;;;;;;;;;;;;;;;;;;4670903;28;23319;-51
2022/03/18 12:04:44;;;;;;;;;;;;;;;;;;4696346;28;23141;-51
2022/03/18 12:07:09;;;;;;;;;;;;;;;;;;4756510;28;19921;-51
2022/03/18 12:09:34;;;;;;;;;;;;;;;;;;4816964;28;19925;-52
2022/03/18 12:11:59;;;;;;;;;;;;;;;;;;4844983;28;19921;-50
2022/03/18 12:14:24;;;;;;;;;;;;;;;;;;4824518;28;19940;-50
2022/03/18 12:16:50;;;;;;;;;;;;;;;;;;4769572;28;19928;-52
2022/03/18 12:19:15;;;;;;;;;;;;;;;;;;4808952;28;19925;-51
2022/03/18 12:21:42;;;;;;;;;;;;;;;;;;4784601;28;19921;-54
2022/03/18 12:24:07;;;;;;;;;;;;;;;;;;4763694;28;19925;-50
2022/03/18 12:26:32;;;;;;;;;;;;;;;;;;4727041;28;20691;-51
2022/03/18 12:28:57;;;;;;;;;;;;;;;;;;4683151;28;20688;-50
2022/03/18 12:31:22;;;;;;;;;;;;;;;;;;4589173;28;20102;-49
2022/03/18 12:33:47;;;;;;;;;;;;;;;;;;4583464;28;22607;-50
2022/03/18 12:36:13;;;;;;;;;;;;;;;;;;4701451;28;19917;-51
2022/03/18 12:38:39;;;;;;;;;;;;;;;;;;4698161;28;19921;-48
2022/03/18 12:41:06;;;;;;;;;;;;;;;;;;4727063;28;20705;-51
2022/03/18 12:43:32;;;;;;;;;;;;;;;;;;4773253;28;20027;-50
2022/03/18 12:45:57;;;;;;;;;;;;;;;;;;4764701;28;22870;-52
2022/03/18 12:48:22;;;;;;;;;;;;;;;;;;4744114;28;19921;-52
2022/03/18 12:50:47;;;;;;;;;;;;;;;;;;4768140;23;22786;-51
2022/03/18 12:53:13;;;;;;;;;;;;;;;;;;4782318;28;20484;-52
2022/03/18 12:55:38;;;;;;;;;;;;;;;;;;4782678;28;19969;-52
2022/03/18 12:58:04;;;;;;;;;;;;;;;;;;4773256;28;21443;-50
2022/03/18 13:00:30;;;;;;;;;;;;;;;;;;4811752;28;20805;-50
2022/03/18 13:02:56;;;;;;;;;;;;;;;;;;4787662;28;19967;-50
2022/03/18 13:05:21;;;;;;;;;;;;;;;;;;4781967;28;21363;-52
2022/03/18 13:07:48;;;;;;;;;;;;;;;;;;4783129;28;19922;-50
2022/03/18 13:10:14;;;;;;;;;;;;;;;;;;4691415;28;20626;-50
2022/03/18 13:12:39;;;;;;;;;;;;;;;;;;4736797;28;23684;-49
2022/03/18 13:15:04;;;;;;;;;;;;;;;;;;4727020;28;20377;-50
2022/03/18 13:17:33;;;;;;;;;;;;;;;;;;4633495;28;21257;-53
2022/03/18 13:19:58;;;;;;;;;;;;;;;;;;4610509;28;20947;-50
2022/03/18 13:22:23;;;;;;;;;;;;;;;;;;4659255;28;20015;-51
2022/03/18 13:24:48;;;;;;;;;;;;;;;;;;4644122;28;23770;-51
2022/03/18 13:27:13;;;;;;;;;;;;;;;;;;4698822;28;19921;-53
2022/03/18 13:35:09;;;;;;;;;;;;;;;;;;4759537;28;19927;-48
2022/03/18 13:37:34;;;;;;;;;;;;;;;;;;4752673;28;20840;-51
2022/03/18 13:39:59;;;;;;;;;;;;;;;;;;4764967;28;23589;-51
2022/03/18 13:42:25;;;;;;;;;;;;;;;;;;4749225;28;22272;-49
2022/03/18 13:44:50;;;;;;;;;;;;;;;;;;4736481;28;20090;-54
2022/03/18 13:47:16;;;;;;;;;;;;;;;;;;4730796;28;19952;-52
2022/03/18 13:49:43;;;;;;;;;;;;;;;;;;4739077;28;20684;-50
2022/03/18 13:52:09;;;;;;;;;;;;;;;;;;4762484;28;19921;-51
2022/03/18 13:54:34;;;;;;;;;;;;;;;;;;4746355;28;20004;-51
2022/03/18 13:56:59;;;;;;;;;;;;;;;;;;4753052;28;19925;-52
2022/03/18 13:59:24;;;;;;;;;;;;;;;;;;4765769;28;20010;-51
2022/03/18 14:01:50;;;;;;;;;;;;;;;;;;4736503;28;19921;-52
2022/03/18 14:04:15;;;;;;;;;;;;;;;;;;4716811;28;20496;-52
2022/03/18 14:06:41;;;;;;;;;;;;;;;;;;4713700;28;22409;-50
2022/03/18 14:09:06;;;;;;;;;;;;;;;;;;4723344;28;19964;-50
2022/03/18 14:14:15;;;;;;;;;;;;;;;;;;4730696;28;19995;-51
2022/03/18 14:16:40;;;;;;;;;;;;;;;;;;4796802;28;20184;-52
2022/03/18 14:19:05;;;;;;;;;;;;;;;;;;4870572;28;21008;-50
2022/03/18 14:21:30;;;;;;;;;;;;;;;;;;4856818;28;19987;-52
2022/03/18 14:23:55;;;;;;;;;;;;;;;;;;4900634;28;19926;-51
2022/03/18 14:26:20;;;;;;;;;;;;;;;;;;4932946;28;19957;-51
2022/03/18 14:28:45;;;;;;;;;;;;;;;;;;4950280;28;19921;-52
2022/03/18 14:31:10;;;;;;;;;;;;;;;;;;4943250;28;19925;-50
2022/03/18 14:33:37;;;;;;;;;;;;;;;;;;4949493;28;19957;-49
2022/03/18 14:36:04;;;;;;;;;;;;;;;;;;4942943;28;19917;-51
2022/03/18 14:38:29;;;;;;;;;;;;;;;;;;4954502;28;19928;-53
2022/03/18 14:40:54;;;;;;;;;;;;;;;;;;4957955;28;20518;-50
2022/03/18 14:43:20;;;;;;;;;;;;;;;;;;4966339;28;19960;-51
2022/03/18 14:45:45;;;;;;;;;;;;;;;;;;4955211;28;19924;-53
2022/03/18 14:48:10;;;;;;;;;;;;;;;;;;4956255;28;19921;-50
2022/03/18 14:50:38;;;;;;;;;;;;;;;;;;4949460;28;19929;-50
2022/03/18 14:53:03;;;;;;;;;;;;;;;;;;4948432;28;19921;-52
2022/03/18 14:58:33;;;;;;;;;;;;;;;;;;4873761;28;19922;-53
2022/03/18 15:00:59;;;;;;;;;;;;;;;;;;4866557;28;19922;-53
2022/03/18 15:03:24;;;;;;;;;;;;;;;;;;4859385;28;20032;-50
2022/03/18 15:05:49;;;;;;;;;;;;;;;;;;4917560;28;19922;-51
2022/03/18 15:08:18;;;;;;;;;;;;;;;;;;4947426;28;20008;-48
2022/03/18 15:10:44;;;;;;;;;;;;;;;;;;4950257;28;21140;-51
2022/03/18 15:13:11;;;;;;;;;;;;;;;;;;4967439;28;20360;-48
2022/03/18 15:15:36;;;;;;;;;;;;;;;;;;4971533;28;20024;-51
2022/03/18 15:18:01;;;;;;;;;;;;;;;;;;4981679;28;19928;-49
2022/03/18 15:20:26;;;;;;;;;;;;;;;;;;4978841;28;19921;-48
2022/03/18 15:22:51;;;;;;;;;;;;;;;;;;4983594;28;19921;-49
2022/03/18 15:25:17;;;;;;;;;;;;;;;;;;4981448;28;20573;-52
2022/03/18 15:27:42;;;;;;;;;;;;;;;;;;4988269;28;19921;-50
2022/03/18 15:30:08;;;;;;;;;;;;;;;;;;4987935;28;19922;-49
2022/03/18 15:32:33;;;;;;;;;;;;;;;;;;4994109;28;19928;-49
2022/03/18 15:34:58;;;;;;;;;;;;;;;;;;4990742;28;21556;-51
2022/03/18 15:37:23;;;;;;;;;;;;;;;;;;4989042;28;20423;-49
2022/03/18 15:39:48;;;;;;;;;;;;;;;;;;4988302;28;20408;-50
2022/03/18 15:42:13;;;;;;;;;;;;;;;;;;4985313;28;20527;-49
2022/03/18 15:44:38;;;;;;;;;;;;;;;;;;4985424;28;20008;-49
2022/03/18 15:47:03;;;;;;;;;;;;;;;;;;4984430;28;22513;-49
2022/03/18 15:49:29;;;;;;;;;;;;;;;;;;4955506;28;20641;-50
2022/03/18 15:51:54;;;;;;;;;;;;;;;;;;4944682;28;19926;-50
2022/03/18 15:54:19;;;;;;;;;;;;;;;;;;4958349;28;20019;-50
2022/03/18 15:56:45;;;;;;;;;;;;;;;;;;4971123;28;19976;-49
2022/03/18 15:59:11;;;;;;;;;;;;;;;;;;4982349;28;20056;-51
2022/03/18 16:01:36;;;;;;;;;;;;;;;;;;5001717;28;19972;-49
2022/03/18 16:04:01;;;;;;;;;;;;;;;;;;5003690;28;21232;-50
2022/03/18 16:06:26;;;;;;;;;;;;;;;;;;5008775;28;20004;-50
2022/03/18 16:08:56;;;;;;;;;;;;;;;;;;5014573;28;20356;-52
2022/03/18 16:11:25;;;;;;;;;;;;;;;;;;5014557;28;19914;-49
2022/03/18 16:13:50;;;;;;;;;;;;;;;;;;5015317;28;19914;-51
2022/03/18 16:16:17;;;;;;;;;;;;;;;;;;5012160;28;19925;-52
2022/03/18 16:18:46;;;;;;;;;;;;;;;;;;5013940;28;20008;-49
2022/03/18 16:21:11;;;;;;;;;;;;;;;;;;5013088;28;19921;-49
2022/03/18 16:23:37;;;;;;;;;;;;;;;;;;5012093;28;19917;-48
2022/03/18 16:26:02;;;;;;;;;;;;;;;;;;5013074;28;20384;-52
2022/03/18 16:28:28;;;;;;;;;;;;;;;;;;5028984;28;19924;-52
2022/03/18 16:30:53;;;;;;;;;;;;;;;;;;5014339;28;20389;-48
2022/03/18 16:33:18;;;;;;;;;;;;;;;;;;5013226;28;20010;-49
2022/03/18 16:35:44;;;;;;;;;;;;;;;;;;5013446;28;19965;-49
2022/03/18 16:38:09;;;;;;;;;;;;;;;;;;5014387;28;20360;-49
2022/03/18 16:40:34;;;;;;;;;;;;;;;;;;5015039;28;19932;-50
2022/03/18 16:42:59;;;;;;;;;;;;;;;;;;5013677;28;20352;-50
2022/03/18 16:45:24;;;;;;;;;;;;;;;;;;5012861;28;19920;-50
2022/03/18 16:50:34;;;;;;;;;;;;;;;;;;5013794;28;19932;-49
2022/03/18 16:53:06;;;;;;;;;;;;;;;;;;5014311;28;19922;-52
2022/03/18 16:55:31;;;;;;;;;;;;;;;;;;5014952;28;19921;-51
2022/03/18 16:57:56;;;;;;;;;;;;;;;;;;5011908;28;19968;-50
2022/03/18 17:00:21;;;;;;;;;;;;;;;;;;5013638;28;20032;-52
2022/03/18 17:02:47;;;;;;;;;;;;;;;;;;5013484;28;19921;-49
2022/03/18 17:05:12;;;;;;;;;;;;;;;;;;5015125;28;19918;-48
2022/03/18 17:07:37;;;;;;;;;;;;;;;;;;5015243;28;19921;-52
2022/03/18 17:10:02;;;;;;;;;;;;;;;;;;5014737;28;19921;-50